sensor_id;sensor_type;location;lat;lon;timestamp;P1;durP1;ratioP1;P2;durP2;ratioP2
15404;SDS011;7801;48.124;11.590;2023-09-12T00:00:54;2.07;;;1.97;;
15404;SDS011;7801;48.124;11.590;2023-09-12T00:03:20;2.53;;;2.43;;
15404;SDS011;7801;48.124;11.590;2023-09-12T00:08:18;3.10;;;2.90;;
15404;SDS011;7801;48.124;11.590;2023-09-12T00:10:43;4.27;;;3.20;;
15404;SDS011;7801;48.124;11.590;2023-09-12T00:13:08;3.00;;;2.33;;
15404;SDS011;7801;48.124;11.590;2023-09-12T00:15:34;3.00;;;2.90;;
15404;SDS011;7801;48.124;11.590;2023-09-12T00:17:59;2.10;;;1.90;;
15404;SDS011;7801;48.124;11.590;2023-09-12T00:20:24;2.30;;;2.20;;
15404;SDS011;7801;48.124;11.590;2023-09-12T00:22:50;3.07;;;2.97;;
15404;SDS011;7801;48.124;11.590;2023-09-12T00:25:16;2.50;;;2.40;;
15404;SDS011;7801;48.124;11.590;2023-09-12T00:27:41;5.17;;;3.70;;
15404;SDS011;7801;48.124;11.590;2023-09-12T00:30:06;3.37;;;2.80;;
15404;SDS011;7801;48.124;11.590;2023-09-12T00:32:32;2.23;;;2.13;;
15404;SDS011;7801;48.124;11.590;2023-09-12T00:34:57;4.27;;;2.60;;
15404;SDS011;7801;48.124;11.590;2023-09-12T00:37:22;2.70;;;2.60;;
15404;SDS011;7801;48.124;11.590;2023-09-12T00:39:48;2.43;;;2.30;;
15404;SDS011;7801;48.124;11.590;2023-09-12T00:42:13;1.90;;;1.80;;
15404;SDS011;7801;48.124;11.590;2023-09-12T00:44:38;2.87;;;2.77;;
15404;SDS011;7801;48.124;11.590;2023-09-12T00:47:04;2.87;;;2.73;;
15404;SDS011;7801;48.124;11.590;2023-09-12T00:49:30;2.50;;;2.40;;
15404;SDS011;7801;48.124;11.590;2023-09-12T00:51:56;3.50;;;3.30;;
15404;SDS011;7801;48.124;11.590;2023-09-12T00:54:23;3.60;;;2.53;;
15404;SDS011;7801;48.124;11.590;2023-09-12T00:56:48;2.67;;;2.57;;
15404;SDS011;7801;48.124;11.590;2023-09-12T00:59:15;3.60;;;3.30;;
15404;SDS011;7801;48.124;11.590;2023-09-12T01:01:43;1.40;;;1.40;;
15404;SDS011;7801;48.124;11.590;2023-09-12T01:04:09;2.83;;;2.63;;
15404;SDS011;7801;48.124;11.590;2023-09-12T01:06:35;2.23;;;2.13;;
15404;SDS011;7801;48.124;11.590;2023-09-12T01:09:00;3.27;;;2.97;;
15404;SDS011;7801;48.124;11.590;2023-09-12T01:11:26;3.17;;;3.00;;
15404;SDS011;7801;48.124;11.590;2023-09-12T01:13:52;2.53;;;2.43;;
15404;SDS011;7801;48.124;11.590;2023-09-12T01:16:17;2.50;;;2.40;;
15404;SDS011;7801;48.124;11.590;2023-09-12T01:18:42;2.33;;;2.23;;
15404;SDS011;7801;48.124;11.590;2023-09-12T01:24:08;3.10;;;2.93;;
15404;SDS011;7801;48.124;11.590;2023-09-12T01:29:57;4.83;;;2.63;;
15404;SDS011;7801;48.124;11.590;2023-09-12T01:32:25;2.23;;;2.13;;
15404;SDS011;7801;48.124;11.590;2023-09-12T01:34:51;2.57;;;2.47;;
15404;SDS011;7801;48.124;11.590;2023-09-12T01:37:17;2.70;;;2.60;;
15404;SDS011;7801;48.124;11.590;2023-09-12T01:39:42;2.63;;;2.53;;
15404;SDS011;7801;48.124;11.590;2023-09-12T01:42:08;2.33;;;2.23;;
15404;SDS011;7801;48.124;11.590;2023-09-12T01:44:39;2.43;;;2.23;;
15404;SDS011;7801;48.124;11.590;2023-09-12T01:47:08;2.77;;;2.67;;
15404;SDS011;7801;48.124;11.590;2023-09-12T01:49:35;1.93;;;1.83;;
15404;SDS011;7801;48.124;11.590;2023-09-12T01:52:02;2.83;;;2.60;;
15404;SDS011;7801;48.124;11.590;2023-09-12T01:54:28;2.67;;;2.57;;
15404;SDS011;7801;48.124;11.590;2023-09-12T01:56:54;2.53;;;2.43;;
15404;SDS011;7801;48.124;11.590;2023-09-12T01:59:22;4.67;;;2.47;;
15404;SDS011;7801;48.124;11.590;2023-09-12T02:01:48;2.23;;;2.13;;
15404;SDS011;7801;48.124;11.590;2023-09-12T02:04:14;2.07;;;1.97;;
15404;SDS011;7801;48.124;11.590;2023-09-12T02:06:39;3.27;;;2.97;;
15404;SDS011;7801;48.124;11.590;2023-09-12T02:09:04;2.53;;;2.43;;
15404;SDS011;7801;48.124;11.590;2023-09-12T02:11:30;3.23;;;3.13;;
15404;SDS011;7801;48.124;11.590;2023-09-12T02:13:55;2.10;;;2.00;;
15404;SDS011;7801;48.124;11.590;2023-09-12T02:16:20;6.90;;;3.17;;
15404;SDS011;7801;48.124;11.590;2023-09-12T02:18:46;3.27;;;3.00;;
15404;SDS011;7801;48.124;11.590;2023-09-12T02:21:11;2.20;;;2.10;;
15404;SDS011;7801;48.124;11.590;2023-09-12T02:23:37;2.43;;;2.23;;
15404;SDS011;7801;48.124;11.590;2023-09-12T02:26:02;3.10;;;2.63;;
15404;SDS011;7801;48.124;11.590;2023-09-12T02:28:27;2.07;;;1.97;;
15404;SDS011;7801;48.124;11.590;2023-09-12T02:30:53;2.60;;;2.50;;
15404;SDS011;7801;48.124;11.590;2023-09-12T02:33:18;2.60;;;2.50;;
15404;SDS011;7801;48.124;11.590;2023-09-12T02:35:43;2.37;;;2.27;;
15404;SDS011;7801;48.124;11.590;2023-09-12T02:38:09;2.77;;;2.57;;
15404;SDS011;7801;48.124;11.590;2023-09-12T02:40:34;2.53;;;2.43;;
15404;SDS011;7801;48.124;11.590;2023-09-12T02:42:59;2.20;;;2.10;;
15404;SDS011;7801;48.124;11.590;2023-09-12T02:45:25;2.13;;;2.03;;
15404;SDS011;7801;48.124;11.590;2023-09-12T02:47:50;2.70;;;2.60;;
15404;SDS011;7801;48.124;11.590;2023-09-12T02:50:16;3.07;;;2.97;;
15404;SDS011;7801;48.124;11.590;2023-09-12T02:52:42;2.37;;;2.27;;
15404;SDS011;7801;48.124;11.590;2023-09-12T02:55:07;2.93;;;2.77;;
15404;SDS011;7801;48.124;11.590;2023-09-12T02:57:32;2.63;;;1.97;;
15404;SDS011;7801;48.124;11.590;2023-09-12T02:59:58;2.30;;;2.20;;
15404;SDS011;7801;48.124;11.590;2023-09-12T03:02:28;1.70;;;1.70;;
15404;SDS011;7801;48.124;11.590;2023-09-12T03:04:54;2.17;;;2.07;;
15404;SDS011;7801;48.124;11.590;2023-09-12T03:07:21;3.67;;;3.40;;
15404;SDS011;7801;48.124;11.590;2023-09-12T03:09:49;3.20;;;2.90;;
15404;SDS011;7801;48.124;11.590;2023-09-12T03:12:14;3.00;;;2.77;;
15404;SDS011;7801;48.124;11.590;2023-09-12T03:14:40;2.43;;;2.33;;
15404;SDS011;7801;48.124;11.590;2023-09-12T03:17:05;3.17;;;2.90;;
15404;SDS011;7801;48.124;11.590;2023-09-12T03:19:31;3.17;;;2.50;;
15404;SDS011;7801;48.124;11.590;2023-09-12T03:21:56;3.77;;;3.47;;
15404;SDS011;7801;48.124;11.590;2023-09-12T03:24:22;1.97;;;1.97;;
15404;SDS011;7801;48.124;11.590;2023-09-12T03:26:49;2.87;;;2.50;;
15404;SDS011;7801;48.124;11.590;2023-09-12T03:29:15;6.77;;;3.37;;
15404;SDS011;7801;48.124;11.590;2023-09-12T03:31:40;3.40;;;3.17;;
15404;SDS011;7801;48.124;11.590;2023-09-12T03:34:07;3.07;;;2.97;;
15404;SDS011;7801;48.124;11.590;2023-09-12T03:36:32;4.37;;;4.03;;
15404;SDS011;7801;48.124;11.590;2023-09-12T03:38:57;3.13;;;2.93;;
15404;SDS011;7801;48.124;11.590;2023-09-12T03:41:23;2.53;;;2.43;;
15404;SDS011;7801;48.124;11.590;2023-09-12T03:43:52;3.47;;;2.93;;
15404;SDS011;7801;48.124;11.590;2023-09-12T03:46:18;3.23;;;3.03;;
15404;SDS011;7801;48.124;11.590;2023-09-12T03:48:43;2.23;;;2.13;;
15404;SDS011;7801;48.124;11.590;2023-09-12T03:51:08;2.60;;;2.50;;
15404;SDS011;7801;48.124;11.590;2023-09-12T03:53:34;3.17;;;3.03;;
15404;SDS011;7801;48.124;11.590;2023-09-12T03:55:59;3.37;;;3.17;;
15404;SDS011;7801;48.124;11.590;2023-09-12T03:58:25;3.00;;;2.80;;
15404;SDS011;7801;48.124;11.590;2023-09-12T04:00:51;2.20;;;2.10;;
15404;SDS011;7801;48.124;11.590;2023-09-12T04:03:16;1.80;;;1.80;;
15404;SDS011;7801;48.124;11.590;2023-09-12T04:05:42;1.80;;;1.80;;
15404;SDS011;7801;48.124;11.590;2023-09-12T04:08:07;2.90;;;2.70;;
15404;SDS011;7801;48.124;11.590;2023-09-12T04:10:32;2.87;;;2.37;;
15404;SDS011;7801;48.124;11.590;2023-09-12T04:12:58;4.00;;;3.70;;
15404;SDS011;7801;48.124;11.590;2023-09-12T04:15:23;2.47;;;2.37;;
15404;SDS011;7801;48.124;11.590;2023-09-12T04:17:48;2.20;;;2.10;;
15404;SDS011;7801;48.124;11.590;2023-09-12T04:20:14;4.50;;;2.97;;
15404;SDS011;7801;48.124;11.590;2023-09-12T04:22:40;2.53;;;2.43;;
15404;SDS011;7801;48.124;11.590;2023-09-12T04:25:06;2.83;;;2.73;;
15404;SDS011;7801;48.124;11.590;2023-09-12T04:27:32;1.87;;;1.83;;
15404;SDS011;7801;48.124;11.590;2023-09-12T04:29:57;2.43;;;2.23;;
15404;SDS011;7801;48.124;11.590;2023-09-12T04:32:22;2.43;;;2.33;;
15404;SDS011;7801;48.124;11.590;2023-09-12T04:34:48;3.07;;;2.40;;
15404;SDS011;7801;48.124;11.590;2023-09-12T04:37:14;2.40;;;2.23;;
15404;SDS011;7801;48.124;11.590;2023-09-12T04:39:39;3.20;;;2.90;;
15404;SDS011;7801;48.124;11.590;2023-09-12T04:42:05;2.73;;;2.63;;
15404;SDS011;7801;48.124;11.590;2023-09-12T04:44:34;3.67;;;3.47;;
15404;SDS011;7801;48.124;11.590;2023-09-12T04:47:00;2.50;;;2.40;;
15404;SDS011;7801;48.124;11.590;2023-09-12T04:49:26;2.80;;;2.70;;
15404;SDS011;7801;48.124;11.590;2023-09-12T04:51:52;1.83;;;1.83;;
15404;SDS011;7801;48.124;11.590;2023-09-12T04:54:17;2.77;;;2.67;;
15404;SDS011;7801;48.124;11.590;2023-09-12T04:56:43;2.67;;;2.47;;
15404;SDS011;7801;48.124;11.590;2023-09-12T04:59:08;2.93;;;2.73;;
15404;SDS011;7801;48.124;11.590;2023-09-12T05:01:33;2.53;;;2.33;;
15404;SDS011;7801;48.124;11.590;2023-09-12T05:03:58;3.40;;;3.20;;
15404;SDS011;7801;48.124;11.590;2023-09-12T05:06:25;2.13;;;2.00;;
15404;SDS011;7801;48.124;11.590;2023-09-12T05:08:50;2.77;;;2.57;;
15404;SDS011;7801;48.124;11.590;2023-09-12T05:11:16;1.70;;;1.70;;
15404;SDS011;7801;48.124;11.590;2023-09-12T05:13:42;2.20;;;2.10;;
15404;SDS011;7801;48.124;11.590;2023-09-12T05:16:07;2.53;;;2.43;;
15404;SDS011;7801;48.124;11.590;2023-09-12T05:18:33;3.20;;;3.00;;
15404;SDS011;7801;48.124;11.590;2023-09-12T05:20:58;2.67;;;2.50;;
15404;SDS011;7801;48.124;11.590;2023-09-12T05:23:23;2.53;;;2.40;;
15404;SDS011;7801;48.124;11.590;2023-09-12T05:25:49;3.57;;;3.27;;
15404;SDS011;7801;48.124;11.590;2023-09-12T05:28:14;4.10;;;3.83;;
15404;SDS011;7801;48.124;11.590;2023-09-12T05:30:41;3.50;;;3.33;;
15404;SDS011;7801;48.124;11.590;2023-09-12T05:33:07;2.67;;;2.57;;
15404;SDS011;7801;48.124;11.590;2023-09-12T05:35:32;3.53;;;3.23;;
15404;SDS011;7801;48.124;11.590;2023-09-12T05:37:58;2.03;;;1.93;;
15404;SDS011;7801;48.124;11.590;2023-09-12T05:40:23;2.33;;;2.23;;
15404;SDS011;7801;48.124;11.590;2023-09-12T05:42:48;2.67;;;2.57;;
15404;SDS011;7801;48.124;11.590;2023-09-12T05:45:14;2.23;;;2.20;;
15404;SDS011;7801;48.124;11.590;2023-09-12T05:47:39;2.77;;;2.67;;
15404;SDS011;7801;48.124;11.590;2023-09-12T05:50:05;2.27;;;2.17;;
15404;SDS011;7801;48.124;11.590;2023-09-12T05:52:31;2.47;;;2.37;;
15404;SDS011;7801;48.124;11.590;2023-09-12T05:54:57;2.67;;;2.47;;
15404;SDS011;7801;48.124;11.590;2023-09-12T05:57:22;2.93;;;2.70;;
15404;SDS011;7801;48.124;11.590;2023-09-12T05:59:49;6.73;;;2.30;;
15404;SDS011;7801;48.124;11.590;2023-09-12T06:02:15;2.80;;;2.70;;
15404;SDS011;7801;48.124;11.590;2023-09-12T06:04:40;2.43;;;2.33;;
15404;SDS011;7801;48.124;11.590;2023-09-12T06:07:06;2.33;;;2.23;;
15404;SDS011;7801;48.124;11.590;2023-09-12T06:09:31;2.80;;;2.60;;
15404;SDS011;7801;48.124;11.590;2023-09-12T06:11:56;3.33;;;3.13;;
15404;SDS011;7801;48.124;11.590;2023-09-12T06:14:22;6.60;;;2.67;;
15404;SDS011;7801;48.124;11.590;2023-09-12T06:16:47;4.00;;;3.70;;
15404;SDS011;7801;48.124;11.590;2023-09-12T06:19:13;7.90;;;2.40;;
15404;SDS011;7801;48.124;11.590;2023-09-12T06:21:39;3.10;;;2.87;;
15404;SDS011;7801;48.124;11.590;2023-09-12T06:24:12;6.13;;;3.70;;
15404;SDS011;7801;48.124;11.590;2023-09-12T06:26:42;2.43;;;2.33;;
15404;SDS011;7801;48.124;11.590;2023-09-12T06:29:08;3.00;;;2.90;;
15404;SDS011;7801;48.124;11.590;2023-09-12T06:31:34;2.67;;;2.47;;
15404;SDS011;7801;48.124;11.590;2023-09-12T06:34:00;2.60;;;2.50;;
15404;SDS011;7801;48.124;11.590;2023-09-12T06:36:27;1.93;;;1.93;;
15404;SDS011;7801;48.124;11.590;2023-09-12T06:38:54;2.80;;;2.60;;
15404;SDS011;7801;48.124;11.590;2023-09-12T06:41:20;2.37;;;2.27;;
15404;SDS011;7801;48.124;11.590;2023-09-12T06:43:46;2.90;;;2.80;;
15404;SDS011;7801;48.124;11.590;2023-09-12T06:46:11;6.23;;;3.03;;
15404;SDS011;7801;48.124;11.590;2023-09-12T06:48:37;3.90;;;3.13;;
15404;SDS011;7801;48.124;11.590;2023-09-12T06:51:05;2.47;;;2.37;;
15404;SDS011;7801;48.124;11.590;2023-09-12T06:53:34;3.43;;;2.67;;
15404;SDS011;7801;48.124;11.590;2023-09-12T06:55:59;2.67;;;2.47;;
15404;SDS011;7801;48.124;11.590;2023-09-12T06:58:25;2.60;;;2.50;;
15404;SDS011;7801;48.124;11.590;2023-09-12T07:00:50;2.70;;;2.37;;
15404;SDS011;7801;48.124;11.590;2023-09-12T07:03:16;3.07;;;2.87;;
15404;SDS011;7801;48.124;11.590;2023-09-12T07:05:41;2.93;;;2.83;;
15404;SDS011;7801;48.124;11.590;2023-09-12T07:08:07;3.87;;;3.67;;
15404;SDS011;7801;48.124;11.590;2023-09-12T07:10:33;2.97;;;2.87;;
15404;SDS011;7801;48.124;11.590;2023-09-12T07:12:59;2.50;;;2.40;;
15404;SDS011;7801;48.124;11.590;2023-09-12T07:15:24;3.20;;;3.00;;
15404;SDS011;7801;48.124;11.590;2023-09-12T07:17:49;2.83;;;2.73;;
15404;SDS011;7801;48.124;11.590;2023-09-12T07:20:15;3.07;;;2.87;;
15404;SDS011;7801;48.124;11.590;2023-09-12T07:22:43;3.10;;;3.00;;
15404;SDS011;7801;48.124;11.590;2023-09-12T07:25:09;4.73;;;4.43;;
15404;SDS011;7801;48.124;11.590;2023-09-12T07:27:36;3.40;;;2.63;;
15404;SDS011;7801;48.124;11.590;2023-09-12T07:30:04;2.80;;;2.60;;
15404;SDS011;7801;48.124;11.590;2023-09-12T07:32:32;4.07;;;3.63;;
15404;SDS011;7801;48.124;11.590;2023-09-12T07:34:58;3.33;;;3.13;;
15404;SDS011;7801;48.124;11.590;2023-09-12T07:37:23;5.23;;;4.63;;
15404;SDS011;7801;48.124;11.590;2023-09-12T07:39:50;7.50;;;3.10;;
15404;SDS011;7801;48.124;11.590;2023-09-12T07:42:15;3.13;;;2.87;;
15404;SDS011;7801;48.124;11.590;2023-09-12T07:44:41;3.77;;;3.57;;
15404;SDS011;7801;48.124;11.590;2023-09-12T07:47:06;4.07;;;3.67;;
15404;SDS011;7801;48.124;11.590;2023-09-12T07:49:32;6.57;;;4.67;;
15404;SDS011;7801;48.124;11.590;2023-09-12T07:51:57;7.30;;;6.80;;
15404;SDS011;7801;48.124;11.590;2023-09-12T07:54:23;26.17;;;20.17;;
15404;SDS011;7801;48.124;11.590;2023-09-12T07:56:48;9.23;;;8.63;;
15404;SDS011;7801;48.124;11.590;2023-09-12T07:59:13;19.23;;;8.17;;
15404;SDS011;7801;48.124;11.590;2023-09-12T08:01:39;9.80;;;8.50;;
15404;SDS011;7801;48.124;11.590;2023-09-12T08:04:05;6.97;;;6.47;;
15404;SDS011;7801;48.124;11.590;2023-09-12T08:06:30;5.57;;;5.17;;
15404;SDS011;7801;48.124;11.590;2023-09-12T08:08:57;5.23;;;4.80;;
15404;SDS011;7801;48.124;11.590;2023-09-12T08:11:23;2.43;;;2.33;;
15404;SDS011;7801;48.124;11.590;2023-09-12T08:13:49;2.67;;;2.50;;
15404;SDS011;7801;48.124;11.590;2023-09-12T08:16:15;2.73;;;2.57;;
15404;SDS011;7801;48.124;11.590;2023-09-12T08:18:40;2.13;;;2.03;;
15404;SDS011;7801;48.124;11.590;2023-09-12T08:21:05;2.47;;;2.37;;
15404;SDS011;7801;48.124;11.590;2023-09-12T08:23:31;3.30;;;3.10;;
15404;SDS011;7801;48.124;11.590;2023-09-12T08:25:56;3.07;;;2.87;;
15404;SDS011;7801;48.124;11.590;2023-09-12T08:28:21;2.17;;;2.07;;
15404;SDS011;7801;48.124;11.590;2023-09-12T08:30:47;1.90;;;1.90;;
15404;SDS011;7801;48.124;11.590;2023-09-12T08:33:12;2.80;;;2.43;;
15404;SDS011;7801;48.124;11.590;2023-09-12T08:35:38;2.60;;;2.50;;
15404;SDS011;7801;48.124;11.590;2023-09-12T08:38:04;2.33;;;2.23;;
15404;SDS011;7801;48.124;11.590;2023-09-12T08:40:30;2.87;;;2.77;;
15404;SDS011;7801;48.124;11.590;2023-09-12T08:42:57;2.07;;;1.97;;
15404;SDS011;7801;48.124;11.590;2023-09-12T08:45:23;4.17;;;3.97;;
15404;SDS011;7801;48.124;11.590;2023-09-12T08:47:49;2.43;;;2.33;;
15404;SDS011;7801;48.124;11.590;2023-09-12T08:50:16;2.30;;;2.20;;
15404;SDS011;7801;48.124;11.590;2023-09-12T08:52:42;2.50;;;2.40;;
15404;SDS011;7801;48.124;11.590;2023-09-12T08:55:10;2.53;;;2.33;;
15404;SDS011;7801;48.124;11.590;2023-09-12T08:57:38;2.30;;;2.20;;
15404;SDS011;7801;48.124;11.590;2023-09-12T09:00:05;2.50;;;2.40;;
15404;SDS011;7801;48.124;11.590;2023-09-12T09:02:34;1.47;;;1.47;;
15404;SDS011;7801;48.124;11.590;2023-09-12T09:05:00;2.77;;;2.67;;
15404;SDS011;7801;48.124;11.590;2023-09-12T09:07:28;2.73;;;2.63;;
15404;SDS011;7801;48.124;11.590;2023-09-12T09:09:54;3.37;;;3.17;;
15404;SDS011;7801;48.124;11.590;2023-09-12T09:12:21;3.40;;;3.20;;
15404;SDS011;7801;48.124;11.590;2023-09-12T09:14:46;2.83;;;2.63;;
15404;SDS011;7801;48.124;11.590;2023-09-12T09:17:11;4.50;;;2.53;;
15404;SDS011;7801;48.124;11.590;2023-09-12T09:19:42;3.07;;;2.87;;
15404;SDS011;7801;48.124;11.590;2023-09-12T09:22:09;2.63;;;2.53;;
15404;SDS011;7801;48.124;11.590;2023-09-12T09:24:35;2.93;;;2.67;;
15404;SDS011;7801;48.124;11.590;2023-09-12T09:27:00;2.40;;;2.30;;
15404;SDS011;7801;48.124;11.590;2023-09-12T09:29:27;6.13;;;5.63;;
15404;SDS011;7801;48.124;11.590;2023-09-12T09:31:57;2.97;;;2.77;;
15404;SDS011;7801;48.124;11.590;2023-09-12T09:34:24;2.63;;;2.53;;
15404;SDS011;7801;48.124;11.590;2023-09-12T09:36:50;4.43;;;3.10;;
15404;SDS011;7801;48.124;11.590;2023-09-12T09:39:17;2.67;;;2.57;;
15404;SDS011;7801;48.124;11.590;2023-09-12T09:41:46;1.57;;;1.57;;
15404;SDS011;7801;48.124;11.590;2023-09-12T09:44:15;2.63;;;2.53;;
15404;SDS011;7801;48.124;11.590;2023-09-12T09:46:44;2.70;;;2.60;;
15404;SDS011;7801;48.124;11.590;2023-09-12T09:49:11;1.83;;;1.83;;
15404;SDS011;7801;48.124;11.590;2023-09-12T09:51:43;2.07;;;2.00;;
15404;SDS011;7801;48.124;11.590;2023-09-12T09:54:09;1.63;;;1.63;;
15404;SDS011;7801;48.124;11.590;2023-09-12T09:59:13;5.83;;;5.40;;
15404;SDS011;7801;48.124;11.590;2023-09-12T10:01:39;2.27;;;2.20;;
15404;SDS011;7801;48.124;11.590;2023-09-12T10:04:06;2.13;;;2.03;;
15404;SDS011;7801;48.124;11.590;2023-09-12T10:06:32;2.13;;;2.03;;
15404;SDS011;7801;48.124;11.590;2023-09-12T10:09:06;2.93;;;2.50;;
15404;SDS011;7801;48.124;11.590;2023-09-12T10:11:35;1.37;;;1.30;;
15404;SDS011;7801;48.124;11.590;2023-09-12T10:14:03;2.23;;;2.13;;
15404;SDS011;7801;48.124;11.590;2023-09-12T10:16:30;4.63;;;4.40;;
15404;SDS011;7801;48.124;11.590;2023-09-12T10:21:50;7.30;;;5.53;;
15404;SDS011;7801;48.124;11.590;2023-09-12T10:24:26;6.83;;;5.50;;
15404;SDS011;7801;48.124;11.590;2023-09-12T10:26:52;4.83;;;4.53;;
15404;SDS011;7801;48.124;11.590;2023-09-12T10:29:20;4.60;;;3.33;;
15404;SDS011;7801;48.124;11.590;2023-09-12T10:31:46;4.63;;;4.33;;
15404;SDS011;7801;48.124;11.590;2023-09-12T10:34:12;8.13;;;7.63;;
15404;SDS011;7801;48.124;11.590;2023-09-12T10:36:40;4.80;;;4.50;;
15404;SDS011;7801;48.124;11.590;2023-09-12T10:39:07;5.97;;;3.67;;
15404;SDS011;7801;48.124;11.590;2023-09-12T10:41:36;3.07;;;2.87;;
15404;SDS011;7801;48.124;11.590;2023-09-12T10:44:02;2.03;;;1.93;;
15404;SDS011;7801;48.124;11.590;2023-09-12T10:46:36;3.97;;;2.10;;
15404;SDS011;7801;48.124;11.590;2023-09-12T10:49:06;1.90;;;1.80;;
15404;SDS011;7801;48.124;11.590;2023-09-12T10:51:39;1.87;;;1.77;;
15404;SDS011;7801;48.124;11.590;2023-09-12T10:54:06;1.70;;;1.60;;
15404;SDS011;7801;48.124;11.590;2023-09-12T10:56:33;2.30;;;2.20;;
15404;SDS011;7801;48.124;11.590;2023-09-12T11:01:38;1.10;;;1.10;;
15404;SDS011;7801;48.124;11.590;2023-09-12T11:06:44;1.57;;;1.47;;
15404;SDS011;7801;48.124;11.590;2023-09-12T11:09:17;1.70;;;1.60;;
15404;SDS011;7801;48.124;11.590;2023-09-12T11:11:47;3.27;;;3.07;;
15404;SDS011;7801;48.124;11.590;2023-09-12T11:14:14;10.90;;;4.33;;
15404;SDS011;7801;48.124;11.590;2023-09-12T11:16:41;3.73;;;3.47;;
15404;SDS011;7801;48.124;11.590;2023-09-12T11:19:15;2.80;;;2.70;;
15404;SDS011;7801;48.124;11.590;2023-09-12T11:21:43;2.17;;;2.07;;
15404;SDS011;7801;48.124;11.590;2023-09-12T11:24:09;2.20;;;2.10;;
15404;SDS011;7801;48.124;11.590;2023-09-12T11:26:35;1.83;;;1.83;;
15404;SDS011;7801;48.124;11.590;2023-09-12T11:29:10;2.70;;;1.70;;
15404;SDS011;7801;48.124;11.590;2023-09-12T11:31:37;2.63;;;2.53;;
15404;SDS011;7801;48.124;11.590;2023-09-12T11:34:08;2.07;;;1.53;;
15404;SDS011;7801;48.124;11.590;2023-09-12T11:36:40;2.13;;;2.03;;
15404;SDS011;7801;48.124;11.590;2023-09-12T11:39:21;1.97;;;1.87;;
15404;SDS011;7801;48.124;11.590;2023-09-12T11:41:49;2.53;;;1.70;;
15404;SDS011;7801;48.124;11.590;2023-09-12T11:44:14;1.40;;;1.37;;
15404;SDS011;7801;48.124;11.590;2023-09-12T11:46:40;1.63;;;1.63;;
15404;SDS011;7801;48.124;11.590;2023-09-12T11:49:06;1.47;;;1.47;;
15404;SDS011;7801;48.124;11.590;2023-09-12T11:51:32;1.03;;;1.03;;
15404;SDS011;7801;48.124;11.590;2023-09-12T11:53:57;1.87;;;1.77;;
15404;SDS011;7801;48.124;11.590;2023-09-12T11:56:24;2.20;;;2.10;;
15404;SDS011;7801;48.124;11.590;2023-09-12T11:58:56;2.07;;;1.97;;
15404;SDS011;7801;48.124;11.590;2023-09-12T12:01:21;1.50;;;1.40;;
15404;SDS011;7801;48.124;11.590;2023-09-12T12:03:47;1.20;;;1.20;;
15404;SDS011;7801;48.124;11.590;2023-09-12T12:06:17;2.27;;;2.07;;
15404;SDS011;7801;48.124;11.590;2023-09-12T12:08:43;1.93;;;1.83;;
15404;SDS011;7801;48.124;11.590;2023-09-12T12:11:08;1.87;;;1.83;;
15404;SDS011;7801;48.124;11.590;2023-09-12T12:13:34;2.37;;;2.17;;
15404;SDS011;7801;48.124;11.590;2023-09-12T12:15:59;1.90;;;1.80;;
15404;SDS011;7801;48.124;11.590;2023-09-12T12:18:24;3.53;;;2.17;;
15404;SDS011;7801;48.124;11.590;2023-09-12T12:20:51;1.13;;;1.13;;
15404;SDS011;7801;48.124;11.590;2023-09-12T12:23:16;1.80;;;1.70;;
15404;SDS011;7801;48.124;11.590;2023-09-12T12:25:42;1.00;;;1.00;;
15404;SDS011;7801;48.124;11.590;2023-09-12T12:28:08;2.53;;;2.43;;
15404;SDS011;7801;48.124;11.590;2023-09-12T12:30:34;1.93;;;1.83;;
15404;SDS011;7801;48.124;11.590;2023-09-12T12:33:01;2.27;;;2.13;;
15404;SDS011;7801;48.124;11.590;2023-09-12T12:35:31;1.97;;;1.87;;
15404;SDS011;7801;48.124;11.590;2023-09-12T12:37:56;1.57;;;1.57;;
15404;SDS011;7801;48.124;11.590;2023-09-12T12:40:22;2.27;;;2.17;;
15404;SDS011;7801;48.124;11.590;2023-09-12T12:42:47;1.07;;;1.07;;
15404;SDS011;7801;48.124;11.590;2023-09-12T12:47:38;13.47;;;1.77;;
15404;SDS011;7801;48.124;11.590;2023-09-12T12:50:07;1.57;;;1.57;;
15404;SDS011;7801;48.124;11.590;2023-09-12T12:52:41;1.30;;;1.30;;
15404;SDS011;7801;48.124;11.590;2023-09-12T12:55:08;1.60;;;1.60;;
15404;SDS011;7801;48.124;11.590;2023-09-12T12:57:38;1.80;;;1.80;;
15404;SDS011;7801;48.124;11.590;2023-09-12T13:00:05;1.20;;;1.10;;
15404;SDS011;7801;48.124;11.590;2023-09-12T13:02:42;2.87;;;2.03;;
15404;SDS011;7801;48.124;11.590;2023-09-12T13:05:27;1.57;;;1.30;;
15404;SDS011;7801;48.124;11.590;2023-09-12T13:07:53;1.07;;;1.07;;
15404;SDS011;7801;48.124;11.590;2023-09-12T13:10:19;0.93;;;0.93;;
15404;SDS011;7801;48.124;11.590;2023-09-12T13:12:46;2.03;;;1.93;;
15404;SDS011;7801;48.124;11.590;2023-09-12T13:15:12;1.60;;;1.60;;
15404;SDS011;7801;48.124;11.590;2023-09-12T13:17:38;1.43;;;1.43;;
15404;SDS011;7801;48.124;11.590;2023-09-12T13:20:04;1.77;;;1.67;;
15404;SDS011;7801;48.124;11.590;2023-09-12T13:22:30;1.00;;;1.00;;
15404;SDS011;7801;48.124;11.590;2023-09-12T13:24:55;0.90;;;0.90;;
15404;SDS011;7801;48.124;11.590;2023-09-12T13:27:20;1.20;;;1.20;;
15404;SDS011;7801;48.124;11.590;2023-09-12T13:29:46;6.53;;;1.83;;
15404;SDS011;7801;48.124;11.590;2023-09-12T13:32:13;1.17;;;1.17;;
15404;SDS011;7801;48.124;11.590;2023-09-12T13:34:40;1.10;;;1.10;;
15404;SDS011;7801;48.124;11.590;2023-09-12T13:37:05;1.10;;;1.10;;
15404;SDS011;7801;48.124;11.590;2023-09-12T13:39:31;1.73;;;1.63;;
15404;SDS011;7801;48.124;11.590;2023-09-12T13:41:56;1.43;;;1.43;;
15404;SDS011;7801;48.124;11.590;2023-09-12T13:44:24;0.80;;;0.80;;
15404;SDS011;7801;48.124;11.590;2023-09-12T13:46:50;1.27;;;1.20;;
15404;SDS011;7801;48.124;11.590;2023-09-12T13:49:16;1.10;;;1.10;;
15404;SDS011;7801;48.124;11.590;2023-09-12T13:51:41;1.03;;;1.00;;
15404;SDS011;7801;48.124;11.590;2023-09-12T13:54:06;1.03;;;1.03;;
15404;SDS011;7801;48.124;11.590;2023-09-12T13:56:39;1.50;;;1.50;;
15404;SDS011;7801;48.124;11.590;2023-09-12T13:59:06;1.47;;;1.47;;
15404;SDS011;7801;48.124;11.590;2023-09-12T14:01:31;0.77;;;0.77;;
15404;SDS011;7801;48.124;11.590;2023-09-12T14:03:57;2.00;;;1.90;;
15404;SDS011;7801;48.124;11.590;2023-09-12T14:06:22;0.90;;;0.90;;
15404;SDS011;7801;48.124;11.590;2023-09-12T14:08:47;2.33;;;2.17;;
15404;SDS011;7801;48.124;11.590;2023-09-12T14:11:13;4.43;;;4.03;;
15404;SDS011;7801;48.124;11.590;2023-09-12T14:13:38;2.10;;;2.00;;
15404;SDS011;7801;48.124;11.590;2023-09-12T14:16:03;1.17;;;1.17;;
15404;SDS011;7801;48.124;11.590;2023-09-12T14:18:29;1.77;;;1.67;;
15404;SDS011;7801;48.124;11.590;2023-09-12T14:20:54;1.60;;;1.50;;
15404;SDS011;7801;48.124;11.590;2023-09-12T14:23:20;2.47;;;2.27;;
15404;SDS011;7801;48.124;11.590;2023-09-12T14:25:46;1.43;;;1.43;;
15404;SDS011;7801;48.124;11.590;2023-09-12T14:28:11;1.33;;;1.33;;
15404;SDS011;7801;48.124;11.590;2023-09-12T14:30:36;1.50;;;1.50;;
15404;SDS011;7801;48.124;11.590;2023-09-12T14:33:03;1.60;;;1.50;;
15404;SDS011;7801;48.124;11.590;2023-09-12T14:35:29;1.83;;;1.47;;
15404;SDS011;7801;48.124;11.590;2023-09-12T14:37:54;1.70;;;1.67;;
15404;SDS011;7801;48.124;11.590;2023-09-12T14:40:20;0.93;;;0.93;;
15404;SDS011;7801;48.124;11.590;2023-09-12T14:42:45;2.03;;;1.40;;
15404;SDS011;7801;48.124;11.590;2023-09-12T14:45:13;1.73;;;1.60;;
15404;SDS011;7801;48.124;11.590;2023-09-12T14:47:38;1.43;;;1.43;;
15404;SDS011;7801;48.124;11.590;2023-09-12T14:50:04;2.10;;;2.00;;
15404;SDS011;7801;48.124;11.590;2023-09-12T14:52:29;1.47;;;1.37;;
15404;SDS011;7801;48.124;11.590;2023-09-12T14:54:55;1.67;;;1.57;;
15404;SDS011;7801;48.124;11.590;2023-09-12T14:57:22;1.40;;;1.40;;
15404;SDS011;7801;48.124;11.590;2023-09-12T14:59:48;2.53;;;2.40;;
15404;SDS011;7801;48.124;11.590;2023-09-12T15:02:15;1.93;;;1.83;;
15404;SDS011;7801;48.124;11.590;2023-09-12T15:04:40;1.97;;;1.87;;